Time;durP1;ratioP1;P1;durP2;ratioP2;P2;SDS_P1;SDS_P2;PMS_P1;PMS_P2;Temp;Humidity;BMP_temperature;BMP_pressure;BME280_temperature;BME280_humidity;BME280_pressure;Samples;Min_cycle;Max_cycle;Signal;HPM_P1;HPM_P2
2023/01/07 00:01:38;;;;;;;11.57;7.50;;;-2.10;99.90;;;;;;4955764;28;20047;-64
2023/01/07 00:04:07;;;;;;;12.38;6.43;;;-2.00;99.90;;;;;;4954494;28;20129;-66
2023/01/07 00:06:37;;;;;;;12.23;6.88;;;-2.00;99.90;;;;;;4953338;28;20521;-61
2023/01/07 00:09:06;;;;;;;10.43;6.20;;;-2.00;99.90;;;;;;4951428;28;20446;-62
2023/01/07 00:11:37;;;;;;;10.60;7.20;;;-2.00;99.90;;;;;;4952992;28;20047;-65
2023/01/07 00:14:06;;;;;;;18.25;7.63;;;-2.00;99.90;;;;;;4957671;28;20141;-63
2023/01/07 00:16:35;;;;;;;13.95;8.50;;;-2.00;99.90;;;;;;4954634;28;20047;-65
2023/01/07 00:19:04;;;;;;;11.35;6.82;;;-2.00;99.90;;;;;;4950743;28;20070;-67
2023/01/07 00:21:31;;;;;;;15.75;8.32;;;-2.00;99.90;;;;;;4948299;28;20174;-66
2023/01/07 00:24:00;;;;;;;13.35;7.10;;;-1.90;99.90;;;;;;4951047;28;20126;-63
2023/01/07 00:26:33;;;;;;;13.63;8.43;;;-1.90;99.90;;;;;;4953803;28;20058;-69
2023/01/07 00:29:00;;;;;;;13.38;7.78;;;-1.90;99.90;;;;;;4955140;28;20158;-65
2023/01/07 00:31:29;;;;;;;11.82;7.35;;;-1.90;99.90;;;;;;4950341;28;20069;-69
2023/01/07 00:36:29;;;;;;;12.60;6.90;;;-1.90;99.90;;;;;;4952003;28;20063;-65
2023/01/07 00:39:01;;;;;;;8.77;7.05;;;-1.90;99.90;;;;;;4951871;28;20114;-62
2023/01/07 00:41:28;;;;;;;13.27;8.40;;;-1.90;99.90;;;;;;4955197;28;20464;-70
2023/01/07 00:43:55;;;;;;;13.63;8.35;;;-1.90;99.90;;;;;;4950585;28;20438;-62
2023/01/07 00:46:23;;;;;;;11.65;7.53;;;-1.90;99.90;;;;;;4955050;28;20603;-68
2023/01/07 00:48:50;;;;;;;15.73;8.95;;;-1.90;99.90;;;;;;4954444;28;20097;-66
2023/01/07 00:51:18;;;;;;;11.95;8.95;;;-1.80;99.90;;;;;;4954235;28;20050;-67
2023/01/07 00:53:45;;;;;;;11.52;7.18;;;-1.80;99.90;;;;;;4950855;28;20053;-62
2023/01/07 00:56:14;;;;;;;11.75;7.25;;;-1.80;99.90;;;;;;4952119;28;20113;-62
2023/01/07 00:58:41;;;;;;;11.02;7.75;;;-1.80;99.90;;;;;;4959899;28;20055;-66
2023/01/07 01:01:09;;;;;;;12.32;7.18;;;-1.80;99.90;;;;;;4958009;28;20054;-63
2023/01/07 01:03:37;;;;;;;15.18;7.03;;;-1.80;99.90;;;;;;4969188;28;20139;-63
2023/01/07 01:06:07;;;;;;;14.35;9.27;;;-1.80;99.90;;;;;;4951465;28;20072;-65
2023/01/07 01:08:34;;;;;;;10.43;6.88;;;-1.80;99.90;;;;;;4947562;28;20051;-65
2023/01/07 01:11:08;;;;;;;12.52;7.30;;;-1.80;99.90;;;;;;4954590;28;20051;-66
2023/01/07 01:13:35;;;;;;;14.10;7.47;;;-1.80;99.90;;;;;;4961853;28;20051;-62
2023/01/07 01:16:11;;;;;;;11.40;6.70;;;-1.80;99.90;;;;;;4949799;28;20051;-64
2023/01/07 01:18:38;;;;;;;9.02;7.00;;;-1.70;99.90;;;;;;4955402;28;20055;-66
2023/01/07 01:21:07;;;;;;;13.18;8.35;;;-1.70;99.90;;;;;;4969080;28;20050;-64
2023/01/07 01:23:34;;;;;;;12.70;7.07;;;-1.70;99.90;;;;;;4956488;28;20170;-64
2023/01/07 01:26:07;;;;;;;12.27;7.47;;;-1.70;99.90;;;;;;4951448;28;20137;-68
2023/01/07 01:28:34;;;;;;;11.20;6.55;;;-1.70;99.90;;;;;;4948486;28;20098;-68
2023/01/07 01:31:04;;;;;;;15.60;9.20;;;-1.70;99.90;;;;;;4973343;28;20055;-69
2023/01/07 01:33:42;;;;;;;11.75;7.90;;;-1.60;99.90;;;;;;4949350;28;20051;-63
2023/01/07 01:36:11;;;;;;;12.82;7.90;;;-1.60;99.90;;;;;;4964564;28;20141;-63
2023/01/07 01:38:39;;;;;;;12.55;7.78;;;-1.60;99.90;;;;;;4964041;28;20066;-62
2023/01/07 01:41:07;;;;;;;13.60;7.53;;;-1.60;99.90;;;;;;4953493;28;20420;-62
2023/01/07 01:43:40;;;;;;;12.20;7.65;;;-1.60;99.90;;;;;;4941249;28;20133;-63
2023/01/07 01:46:33;;;;;;;15.38;8.25;;;-1.60;99.90;;;;;;4969041;28;20397;-62
2023/01/07 01:49:21;;;;;;;13.05;8.73;;;-1.60;99.90;;;;;;4963278;28;20390;-72
2023/01/07 01:51:59;;;;;;;10.55;8.02;;;-1.60;99.90;;;;;;4967249;28;20039;-62
2023/01/07 01:54:27;;;;;;;10.85;7.78;;;-1.50;99.90;;;;;;4965399;28;20051;-70
2023/01/07 01:56:59;;;;;;;19.33;9.48;;;-1.50;99.90;;;;;;4960579;28;20138;-62
2023/01/07 01:59:31;;;;;;;14.15;7.13;;;-1.50;99.90;;;;;;4967057;28;20054;-65
2023/01/07 02:02:02;;;;;;;14.65;8.43;;;-1.50;99.90;;;;;;4958578;28;20050;-63
2023/01/07 02:04:31;;;;;;;15.52;8.48;;;-1.40;99.90;;;;;;4953184;28;20593;-67
2023/01/07 02:07:08;;;;;;;14.63;7.60;;;-1.40;99.90;;;;;;4964053;28;20509;-62
2023/01/07 02:09:40;;;;;;;10.68;7.93;;;-1.50;99.90;;;;;;4957112;28;20139;-62
2023/01/07 02:12:42;;;;;;;15.43;8.80;;;-1.50;99.90;;;;;;4963441;28;20043;-66
2023/01/07 02:15:20;;;;;;;11.68;8.20;;;-1.50;99.90;;;;;;4943647;28;20105;-62
2023/01/07 02:17:59;;;;;;;11.80;7.72;;;-1.50;99.90;;;;;;4945658;28;20145;-68
2023/01/07 02:21:01;;;;;;;11.27;8.27;;;-1.50;99.90;;;;;;4965686;28;20053;-62
2023/01/07 02:23:27;;;;;;;13.80;9.25;;;-1.50;99.90;;;;;;4916673;28;20066;-68
2023/01/07 02:26:30;;;;;;;15.30;9.35;;;-1.40;99.90;;;;;;4968789;28;20166;-65
2023/01/07 02:29:16;;;;;;;12.50;9.50;;;-1.40;99.90;;;;;;4952522;28;20138;-63
2023/01/07 02:31:52;;;;;;;13.90;10.07;;;-1.40;99.90;;;;;;4963296;28;20055;-61
2023/01/07 02:34:49;;;;;;;15.80;10.45;;;-1.40;99.90;;;;;;4952675;28;20051;-66
2023/01/07 02:37:15;;;;;;;15.77;10.07;;;-1.40;99.90;;;;;;4961400;28;20071;-64
2023/01/07 02:39:49;;;;;;;15.00;10.57;;;-1.40;99.90;;;;;;4972449;28;20520;-64
2023/01/07 02:42:29;;;;;;;18.15;9.57;;;-1.40;99.90;;;;;;4956730;28;20132;-66
2023/01/07 02:45:14;;;;;;;12.60;9.55;;;-1.40;99.90;;;;;;4951097;28;20089;-63
2023/01/07 02:47:51;;;;;;;14.50;10.63;;;-1.40;99.90;;;;;;4946433;28;20055;-65
2023/01/07 02:50:18;;;;;;;16.13;9.73;;;-1.40;99.90;;;;;;4949507;28;20061;-63
2023/01/07 02:52:45;;;;;;;13.23;9.48;;;-1.40;99.90;;;;;;4958270;28;20047;-62
2023/01/07 02:55:16;;;;;;;17.98;9.85;;;-1.40;99.90;;;;;;4947627;28;20110;-69
2023/01/07 02:57:46;;;;;;;20.10;11.02;;;-1.30;99.90;;;;;;4948536;28;20055;-65
2023/01/07 03:00:38;;;;;;;17.42;8.93;;;-1.30;99.90;;;;;;4954398;28;20106;-68
2023/01/07 03:03:42;;;;;;;17.17;9.85;;;-1.30;99.90;;;;;;4951775;28;20055;-63
2023/01/07 03:06:24;;;;;;;14.20;9.77;;;-1.30;99.90;;;;;;4960920;28;20122;-63
2023/01/07 03:09:09;;;;;;;10.48;8.77;;;-1.30;99.90;;;;;;4963268;28;20138;-67
2023/01/07 03:11:56;;;;;;;15.25;9.88;;;-1.30;99.90;;;;;;4971918;28;20102;-63
2023/01/07 03:14:34;;;;;;;11.07;8.35;;;-1.30;99.90;;;;;;4940749;28;20539;-64
2023/01/07 03:17:05;;;;;;;15.13;10.10;;;-1.30;99.90;;;;;;4967866;28;20061;-64
2023/01/07 03:19:37;;;;;;;15.93;9.80;;;-1.30;99.90;;;;;;4958472;28;20837;-65
2023/01/07 03:22:07;;;;;;;10.35;8.43;;;-1.30;99.90;;;;;;4971864;28;20122;-62
2023/01/07 03:24:34;;;;;;;12.40;9.45;;;-1.30;99.90;;;;;;4954442;28;20158;-63
2023/01/07 03:27:05;;;;;;;16.50;10.35;;;-1.20;99.90;;;;;;4955728;28;20548;-64
2023/01/07 03:29:34;;;;;;;17.60;11.07;;;-1.20;99.90;;;;;;4969952;28;20154;-66
2023/01/07 03:32:28;;;;;;;14.02;8.85;;;-1.20;99.90;;;;;;4963639;28;20078;-68
2023/01/07 03:34:55;;;;;;;14.48;10.75;;;-1.20;99.90;;;;;;4953039;28;20051;-61
2023/01/07 03:37:25;;;;;;;14.48;9.27;;;-1.20;99.90;;;;;;4955318;28;20044;-67
2023/01/07 03:39:52;;;;;;;15.80;10.00;;;-1.20;99.90;;;;;;4953852;28;20065;-65
2023/01/07 03:42:40;;;;;;;15.02;9.52;;;-1.20;99.90;;;;;;4973116;28;20043;-63
2023/01/07 03:45:14;;;;;;;12.30;10.88;;;-1.10;99.90;;;;;;4952100;28;20421;-64
2023/01/07 03:47:49;;;;;;;13.02;8.80;;;-1.20;99.90;;;;;;4957818;28;20077;-63
2023/01/07 03:50:18;;;;;;;14.70;10.45;;;-1.10;99.90;;;;;;4969374;28;20054;-65
2023/01/07 03:52:47;;;;;;;17.23;10.43;;;-1.10;99.90;;;;;;4945176;28;20047;-65
2023/01/07 03:55:16;;;;;;;15.38;9.75;;;-1.10;99.90;;;;;;4968937;28;20047;-66
2023/01/07 03:57:43;;;;;;;19.38;11.45;;;-1.10;99.90;;;;;;4954420;28;20078;-65
2023/01/07 04:00:12;;;;;;;15.52;9.80;;;-1.10;99.90;;;;;;4947207;28;20086;-63
2023/01/07 04:02:48;;;;;;;18.25;10.70;;;-1.10;99.90;;;;;;4956473;28;20051;-68
2023/01/07 04:05:26;;;;;;;19.30;10.52;;;-1.10;99.90;;;;;;4970062;28;20578;-64
2023/01/07 04:07:53;;;;;;;13.05;10.63;;;-1.10;99.90;;;;;;4967873;28;20137;-64
2023/01/07 04:10:22;;;;;;;16.92;10.00;;;-1.10;99.90;;;;;;4953775;28;20153;-64
2023/01/07 04:12:50;;;;;;;23.70;11.75;;;-1.10;99.90;;;;;;4973723;28;20066;-64
2023/01/07 04:15:17;;;;;;;15.98;10.00;;;-1.10;99.90;;;;;;4953665;28;20055;-63
2023/01/07 04:17:44;;;;;;;18.13;11.45;;;-1.00;99.90;;;;;;4956139;28;20051;-63
2023/01/07 04:20:11;;;;;;;18.95;10.52;;;-1.00;99.90;;;;;;4952663;28;20142;-66
2023/01/07 04:22:38;;;;;;;13.02;9.65;;;-1.00;99.90;;;;;;4954519;28;20146;-65
2023/01/07 04:25:07;;;;;;;16.73;11.50;;;-1.00;99.90;;;;;;4965001;28;20054;-64
2023/01/07 04:27:35;;;;;;;11.32;9.98;;;-1.00;99.90;;;;;;4972002;28;20051;-63
2023/01/07 04:30:03;;;;;;;16.50;10.98;;;-1.00;99.90;;;;;;4952022;28;20126;-67
2023/01/07 04:32:32;;;;;;;18.77;12.60;;;-1.00;99.90;;;;;;4950201;28;20481;-70
2023/01/07 04:35:00;;;;;;;24.20;13.30;;;-1.00;99.90;;;;;;4956900;28;20514;-63
2023/01/07 04:37:28;;;;;;;17.80;13.00;;;-0.90;99.90;;;;;;4951057;28;20113;-67
2023/01/07 04:39:55;;;;;;;18.67;12.07;;;-0.90;99.90;;;;;;4961942;28;20078;-66
2023/01/07 04:42:22;;;;;;;17.10;13.70;;;-0.90;99.90;;;;;;4969679;28;20066;-64
2023/01/07 04:44:49;;;;;;;17.92;13.32;;;-0.90;99.90;;;;;;4945250;28;20106;-62
2023/01/07 04:47:16;;;;;;;16.02;11.30;;;-0.90;99.90;;;;;;4954892;28;20561;-62
2023/01/07 04:49:44;;;;;;;20.63;13.02;;;-0.90;99.90;;;;;;4959994;28;20569;-65
2023/01/07 04:52:11;;;;;;;19.92;14.95;;;-0.90;99.90;;;;;;4971167;28;20047;-66
2023/01/07 04:54:38;;;;;;;20.17;12.75;;;-0.90;99.90;;;;;;4953434;28;20078;-64
2023/01/07 04:57:05;;;;;;;21.25;13.63;;;-0.90;99.90;;;;;;4955829;28;20043;-65
2023/01/07 04:59:32;;;;;;;17.70;11.55;;;-0.90;99.90;;;;;;4961429;28;20487;-67
2023/01/07 05:02:00;;;;;;;23.95;12.73;;;-0.90;99.90;;;;;;4956517;28;20524;-68
2023/01/07 05:04:28;;;;;;;23.15;12.57;;;-0.90;99.90;;;;;;4959843;28;20395;-65
2023/01/07 05:06:55;;;;;;;17.92;12.10;;;-0.80;99.90;;;;;;4956291;28;20086;-65
2023/01/07 05:09:23;;;;;;;27.65;13.45;;;-0.80;99.90;;;;;;4952476;28;20058;-63
2023/01/07 05:11:50;;;;;;;24.30;13.65;;;-0.80;99.90;;;;;;4940689;28;20075;-74
2023/01/07 05:14:18;;;;;;;18.63;13.27;;;-0.80;99.90;;;;;;4962752;28;20500;-68
2023/01/07 05:16:47;;;;;;;26.55;13.57;;;-0.80;99.90;;;;;;4945524;28;20055;-66
2023/01/07 05:19:14;;;;;;;19.83;12.10;;;-0.70;99.90;;;;;;4951778;28;20078;-66
2023/01/07 05:21:45;;;;;;;21.25;12.82;;;-0.70;99.90;;;;;;4952315;28;20426;-66
2023/01/07 05:24:12;;;;;;;18.08;12.90;;;-0.70;99.90;;;;;;4967061;28;20149;-70
2023/01/07 05:26:39;;;;;;;17.85;12.95;;;-0.80;99.90;;;;;;4944093;28;20043;-63
2023/01/07 05:29:08;;;;;;;15.40;11.70;;;-0.70;99.90;;;;;;4949419;28;20050;-62
2023/01/07 05:31:35;;;;;;;17.40;11.88;;;-0.70;99.90;;;;;;4966393;28;20464;-63
2023/01/07 05:34:03;;;;;;;23.60;12.88;;;-0.70;99.90;;;;;;4943758;29;20765;-65
2023/01/07 05:36:30;;;;;;;19.27;13.38;;;-0.80;99.90;;;;;;4965874;28;20165;-63
2023/01/07 05:38:57;;;;;;;19.85;11.88;;;-0.70;99.90;;;;;;4962497;28;20359;-63
2023/01/07 05:41:24;;;;;;;18.55;11.90;;;-0.70;99.90;;;;;;4949109;28;20487;-65
2023/01/07 05:43:51;;;;;;;14.55;11.73;;;-0.70;99.90;;;;;;4966385;28;20168;-64
2023/01/07 05:46:18;;;;;;;17.35;10.90;;;-0.70;99.90;;;;;;4957729;28;20051;-62
2023/01/07 05:48:45;;;;;;;21.65;12.55;;;-0.70;99.90;;;;;;4955854;28;20047;-68
2023/01/07 05:51:11;;;;;;;19.65;12.88;;;-0.70;99.90;;;;;;4951721;28;20073;-63
2023/01/07 05:53:38;;;;;;;18.77;13.43;;;-0.70;99.90;;;;;;4957039;28;20051;-64
2023/01/07 05:56:05;;;;;;;16.20;11.30;;;-0.70;99.90;;;;;;4954736;28;20158;-67
2023/01/07 05:58:32;;;;;;;21.05;12.35;;;-0.70;99.90;;;;;;4961329;28;20047;-63
2023/01/07 06:00:59;;;;;;;21.60;12.35;;;-0.70;99.90;;;;;;4951563;28;20455;-63
2023/01/07 06:03:26;;;;;;;18.02;11.70;;;-0.70;99.90;;;;;;4959904;28;20055;-65
2023/01/07 06:05:53;;;;;;;15.57;11.32;;;-0.70;99.90;;;;;;4955695;28;20142;-64
2023/01/07 06:08:20;;;;;;;15.02;10.90;;;-0.60;99.90;;;;;;4960149;28;20055;-62
2023/01/07 06:10:47;;;;;;;16.52;10.05;;;-0.70;99.90;;;;;;4957139;28;20114;-69
2023/01/07 06:13:14;;;;;;;15.82;10.45;;;-0.70;99.90;;;;;;4960291;28;20063;-64
2023/01/07 06:15:41;;;;;;;15.65;10.60;;;-0.60;99.90;;;;;;4960465;28;20055;-66
2023/01/07 06:18:08;;;;;;;16.80;10.82;;;-0.60;99.90;;;;;;4960086;28;20073;-69
2023/01/07 06:20:35;;;;;;;14.85;10.65;;;-0.60;99.90;;;;;;4955558;28;20065;-67
2023/01/07 06:23:03;;;;;;;16.10;10.70;;;-0.70;99.90;;;;;;4959772;28;20055;-66
2023/01/07 06:25:30;;;;;;;17.35;10.20;;;-0.60;99.90;;;;;;4957625;28;20055;-63
2023/01/07 06:27:57;;;;;;;21.10;12.18;;;-0.60;99.90;;;;;;4959045;28;20059;-63
2023/01/07 06:30:24;;;;;;;14.82;10.50;;;-0.60;99.90;;;;;;4957484;28;20133;-65
2023/01/07 06:32:51;;;;;;;14.40;9.57;;;-0.60;99.90;;;;;;4960274;28;20043;-65
2023/01/07 06:35:18;;;;;;;14.35;10.48;;;-0.60;99.90;;;;;;4962204;28;20051;-63
2023/01/07 06:37:45;;;;;;;16.15;11.95;;;-0.60;99.90;;;;;;4955877;28;20493;-65
2023/01/07 06:40:12;;;;;;;13.20;11.15;;;-0.60;99.90;;;;;;4963633;28;20051;-74
2023/01/07 06:42:39;;;;;;;17.27;10.23;;;-0.50;99.90;;;;;;4960518;28;20045;-62
2023/01/07 06:45:06;;;;;;;18.80;11.88;;;-0.50;99.90;;;;;;4960971;28;20055;-65
2023/01/07 06:47:33;;;;;;;21.75;11.50;;;-0.50;99.90;;;;;;4961365;28;20051;-70
2023/01/07 06:50:00;;;;;;;17.73;12.07;;;-0.50;99.90;;;;;;4959856;28;20065;-63
2023/01/07 06:52:27;;;;;;;14.25;10.30;;;-0.50;99.90;;;;;;4960713;28;20057;-63
2023/01/07 06:54:54;;;;;;;16.30;11.38;;;-0.50;99.90;;;;;;4960161;28;20050;-66
2023/01/07 06:57:21;;;;;;;15.00;10.75;;;-0.50;99.90;;;;;;4959566;28;20047;-65
2023/01/07 06:59:48;;;;;;;19.65;11.52;;;-0.50;99.90;;;;;;4954255;28;20509;-66
2023/01/07 07:02:20;;;;;;;18.60;10.80;;;-0.50;99.90;;;;;;4962216;28;20065;-67
2023/01/07 07:04:47;;;;;;;19.42;12.25;;;-0.40;99.90;;;;;;4953594;28;20081;-66
2023/01/07 07:07:15;;;;;;;20.45;12.18;;;-0.50;99.90;;;;;;4957089;28;20047;-65
2023/01/07 07:09:42;;;;;;;19.55;10.93;;;-0.50;99.90;;;;;;4959225;28;20042;-63
2023/01/07 07:12:09;;;;;;;20.40;12.13;;;-0.50;99.90;;;;;;4954181;28;20051;-64
2023/01/07 07:14:36;;;;;;;18.77;11.95;;;-0.50;99.90;;;;;;4954427;28;20055;-62
2023/01/07 07:17:04;;;;;;;15.02;11.00;;;-0.50;99.90;;;;;;4956735;28;20123;-66
2023/01/07 07:19:31;;;;;;;19.83;12.27;;;-0.50;99.90;;;;;;4958727;28;20073;-67
2023/01/07 07:21:58;;;;;;;18.30;11.85;;;-0.50;99.90;;;;;;4957653;28;20065;-63
2023/01/07 07:24:25;;;;;;;19.05;11.55;;;-0.50;99.90;;;;;;4953345;28;20078;-65
2023/01/07 07:26:52;;;;;;;16.95;11.10;;;-0.40;99.90;;;;;;4956264;28;20134;-63
2023/01/07 07:29:18;;;;;;;17.65;11.23;;;-0.50;99.90;;;;;;4954136;28;20457;-68
2023/01/07 07:31:47;;;;;;;14.98;12.02;;;-0.40;99.90;;;;;;4952209;28;20149;-63
2023/01/07 07:34:14;;;;;;;15.13;11.93;;;-0.50;99.90;;;;;;4957200;28;20531;-67
2023/01/07 07:36:41;;;;;;;17.98;11.43;;;-0.40;99.90;;;;;;4957886;28;21046;-68
2023/01/07 07:39:09;;;;;;;21.80;12.50;;;-0.50;99.90;;;;;;4956103;28;20484;-64
2023/01/07 07:41:36;;;;;;;18.15;12.02;;;-0.50;99.90;;;;;;4953497;28;20511;-66
2023/01/07 07:44:06;;;;;;;19.95;13.10;;;-0.50;99.90;;;;;;4972482;28;20118;-71
2023/01/07 07:46:33;;;;;;;19.45;12.07;;;-0.50;99.90;;;;;;4948700;28;20269;-70
2023/01/07 07:49:00;;;;;;;15.63;11.40;;;-0.50;99.90;;;;;;4955613;28;20497;-67
2023/01/07 07:51:27;;;;;;;20.85;12.88;;;-0.40;99.90;;;;;;4951944;28;20071;-65
2023/01/07 07:53:54;;;;;;;18.75;10.98;;;-0.40;99.90;;;;;;4956140;28;20086;-63
2023/01/07 07:56:21;;;;;;;26.50;13.00;;;-0.40;99.90;;;;;;4958356;28;20485;-65
2023/01/07 07:58:48;;;;;;;19.77;12.40;;;-0.40;99.90;;;;;;4948662;28;20047;-64
2023/01/07 08:01:15;;;;;;;17.33;12.07;;;-0.40;99.90;;;;;;4950895;28;20484;-69
2023/01/07 08:03:42;;;;;;;25.42;13.18;;;-0.40;99.90;;;;;;4952055;28;20127;-63
2023/01/07 08:06:11;;;;;;;21.15;12.90;;;-0.40;99.90;;;;;;4954834;28;20125;-65
2023/01/07 08:08:38;;;;;;;19.73;13.20;;;-0.40;99.90;;;;;;4953373;28;20450;-66
2023/01/07 08:11:05;;;;;;;18.52;14.18;;;-0.40;99.90;;;;;;4955279;28;20066;-65
2023/01/07 08:13:32;;;;;;;21.65;13.45;;;-0.40;99.90;;;;;;4957434;28;20518;-68
2023/01/07 08:15:59;;;;;;;26.30;13.07;;;-0.40;99.90;;;;;;4956738;28;20091;-64
2023/01/07 08:18:25;;;;;;;20.85;13.43;;;-0.30;99.90;;;;;;4961008;28;20374;-62
2023/01/07 08:20:54;;;;;;;21.40;13.93;;;-0.30;99.90;;;;;;4969167;28;20062;-63
2023/01/07 08:23:21;;;;;;;21.13;13.35;;;-0.30;99.90;;;;;;4949095;28;20055;-64
2023/01/07 08:25:48;;;;;;;21.50;15.20;;;-0.30;99.90;;;;;;4953693;28;20138;-62
2023/01/07 08:28:15;;;;;;;23.48;15.77;;;-0.30;99.90;;;;;;4954027;28;20138;-70
2023/01/07 08:30:42;;;;;;;19.88;13.57;;;-0.20;99.90;;;;;;4951685;28;20061;-64
2023/01/07 08:33:09;;;;;;;20.95;12.85;;;-0.20;99.90;;;;;;4955089;28;20060;-62
2023/01/07 08:35:36;;;;;;;23.77;14.38;;;-0.20;99.90;;;;;;4952544;28;20146;-65
2023/01/07 08:38:05;;;;;;;25.20;13.90;;;-0.10;99.90;;;;;;4956963;28;20365;-65
2023/01/07 08:40:33;;;;;;;26.67;14.30;;;-0.10;99.90;;;;;;4951509;28;20444;-64
2023/01/07 08:43:05;;;;;;;17.70;13.13;;;-0.10;99.90;;;;;;4958328;28;20452;-67
2023/01/07 08:45:32;;;;;;;19.92;14.38;;;-0.10;99.90;;;;;;4954283;28;20051;-66
2023/01/07 08:47:59;;;;;;;18.67;13.38;;;-0.10;99.90;;;;;;4952958;28;20065;-62
2023/01/07 08:50:28;;;;;;;22.05;13.57;;;-0.10;99.90;;;;;;4954186;28;20050;-62
2023/01/07 08:52:55;;;;;;;27.00;14.13;;;-0.10;99.90;;;;;;4954026;28;20500;-64
2023/01/07 08:55:23;;;;;;;19.98;13.52;;;-0.10;99.90;;;;;;4955955;28;20055;-62
2023/01/07 08:57:50;;;;;;;21.48;13.20;;;-0.10;99.90;;;;;;4954763;28;20233;-62
2023/01/07 09:00:18;;;;;;;24.98;14.73;;;-0.10;99.90;;;;;;4958233;28;20043;-63
2023/01/07 09:02:45;;;;;;;16.95;13.70;;;0.00;99.90;;;;;;4951360;28;20102;-62
2023/01/07 09:05:12;;;;;;;25.08;14.73;;;0.00;99.90;;;;;;4954675;28;20051;-65
2023/01/07 09:07:39;;;;;;;20.90;13.18;;;0.00;99.90;;;;;;4951848;28;20449;-64
2023/01/07 09:10:07;;;;;;;22.55;15.15;;;0.10;99.90;;;;;;4953787;28;20043;-65
2023/01/07 09:12:34;;;;;;;22.08;13.98;;;0.10;99.90;;;;;;4955975;28;20085;-62
2023/01/07 09:15:01;;;;;;;21.52;14.95;;;0.10;99.90;;;;;;4956128;28;20505;-62
2023/01/07 09:17:28;;;;;;;23.77;15.05;;;0.20;99.90;;;;;;4952203;28;20444;-63
2023/01/07 09:19:55;;;;;;;20.65;14.52;;;0.20;99.90;;;;;;4954150;28;20093;-61
2023/01/07 09:22:22;;;;;;;21.90;13.07;;;0.20;99.90;;;;;;4954002;28;20537;-62
2023/01/07 09:24:49;;;;;;;21.10;13.45;;;0.20;99.90;;;;;;4956234;28;20134;-61
2023/01/07 09:27:16;;;;;;;21.42;13.73;;;0.20;99.90;;;;;;4953346;28;20438;-65
2023/01/07 09:29:43;;;;;;;21.73;13.45;;;0.20;99.90;;;;;;4953350;28;20061;-61
2023/01/07 09:32:10;;;;;;;14.32;11.50;;;0.10;99.90;;;;;;4956059;28;20201;-62
2023/01/07 09:34:37;;;;;;;25.83;15.82;;;0.20;99.90;;;;;;4947828;28;20085;-63
2023/01/07 09:37:05;;;;;;;23.92;13.65;;;0.20;99.90;;;;;;4953081;28;20058;-65
2023/01/07 09:39:31;;;;;;;23.15;14.40;;;0.20;99.90;;;;;;4956597;28;20497;-63
2023/01/07 09:42:26;;;;;;;24.50;13.80;;;0.30;99.90;;;;;;4952179;28;20062;-63
2023/01/07 09:44:53;;;;;;;18.85;13.77;;;0.30;99.90;;;;;;4949901;28;21314;-64
2023/01/07 09:47:23;;;;;;;20.88;12.93;;;0.30;99.90;;;;;;4950081;28;20402;-62
2023/01/07 09:49:55;;;;;;;22.63;13.95;;;0.30;99.90;;;;;;4952233;28;20063;-62
2023/01/07 09:52:27;;;;;;;21.27;14.40;;;0.30;99.90;;;;;;4949597;28;20084;-62
2023/01/07 09:55:10;;;;;;;22.77;13.60;;;0.30;99.90;;;;;;4954781;28;20061;-64
2023/01/07 09:57:37;;;;;;;21.52;14.50;;;0.30;99.90;;;;;;4954867;28;20080;-64
2023/01/07 10:00:17;;;;;;;21.10;12.40;;;0.40;99.90;;;;;;4952221;28;20142;-64
2023/01/07 10:03:10;;;;;;;20.03;13.70;;;0.30;99.90;;;;;;4948833;28;20062;-64
2023/01/07 10:05:45;;;;;;;21.45;13.70;;;0.30;99.90;;;;;;4946889;28;20134;-63
2023/01/07 10:08:24;;;;;;;22.40;14.68;;;0.40;99.90;;;;;;4954470;28;20065;-62
2023/01/07 10:11:32;;;;;;;23.25;13.43;;;0.40;99.90;;;;;;4951162;28;20079;-62
2023/01/07 10:14:28;;;;;;;20.02;14.35;;;0.40;99.90;;;;;;4950583;28;20145;-61
2023/01/07 10:17:20;;;;;;;20.42;12.77;;;0.40;99.90;;;;;;4952611;28;20107;-62
2023/01/07 10:20:25;;;;;;;19.88;13.02;;;0.50;99.90;;;;;;4951705;28;20063;-67
2023/01/07 10:23:03;;;;;;;27.80;15.65;;;0.50;99.90;;;;;;4952840;28;20055;-63
2023/01/07 10:25:44;;;;;;;23.80;13.52;;;0.50;99.90;;;;;;4953654;28;20431;-64
2023/01/07 10:28:34;;;;;;;24.65;17.00;;;0.50;99.90;;;;;;4953422;28;20058;-61
2023/01/07 10:31:04;;;;;;;23.63;12.70;;;0.50;99.90;;;;;;4948883;28;20051;-61
2023/01/07 10:33:32;;;;;;;16.73;11.63;;;0.50;99.90;;;;;;4951937;28;20058;-64
2023/01/07 10:36:30;;;;;;;21.73;14.88;;;0.50;99.90;;;;;;4955567;28;20412;-62
2023/01/07 10:39:17;;;;;;;24.55;14.98;;;0.50;99.90;;;;;;4951510;28;20064;-64
2023/01/07 10:41:59;;;;;;;25.33;13.38;;;0.50;99.90;;;;;;4959597;28;20098;-64
2023/01/07 10:44:37;;;;;;;24.15;13.23;;;0.60;99.90;;;;;;4951452;28;20054;-62
2023/01/07 10:47:19;;;;;;;24.23;15.00;;;0.60;99.90;;;;;;4953563;28;20106;-67
2023/01/07 10:50:04;;;;;;;19.98;12.68;;;0.60;99.90;;;;;;4958496;28;20141;-61
2023/01/07 10:52:49;;;;;;;19.85;13.27;;;0.70;99.90;;;;;;4951189;28;20059;-66
2023/01/07 10:55:26;;;;;;;22.88;13.68;;;0.70;99.90;;;;;;4953007;28;20465;-64
2023/01/07 10:57:53;;;;;;;24.70;16.23;;;0.70;99.90;;;;;;4958546;28;20759;-72
2023/01/07 11:00:20;;;;;;;27.23;14.65;;;0.70;99.90;;;;;;4953133;28;20066;-63
2023/01/07 11:02:54;;;;;;;22.40;14.20;;;0.70;99.90;;;;;;4953610;28;20047;-63
2023/01/07 11:05:23;;;;;;;25.02;14.02;;;0.70;99.90;;;;;;4956669;28;20351;-65
2023/01/07 11:08:02;;;;;;;19.75;13.50;;;0.70;99.90;;;;;;4952886;28;20153;-63
2023/01/07 11:10:35;;;;;;;20.95;14.50;;;0.70;99.90;;;;;;4948365;28;20438;-68
2023/01/07 11:13:12;;;;;;;18.67;12.82;;;0.70;99.90;;;;;;4957144;28;20047;-63
2023/01/07 11:15:47;;;;;;;19.50;13.10;;;0.60;99.90;;;;;;4954922;28;20055;-70
2023/01/07 11:18:22;;;;;;;20.58;13.68;;;0.70;99.90;;;;;;4956267;28;20047;-62
2023/01/07 11:20:54;;;;;;;23.90;13.68;;;0.70;99.90;;;;;;4954429;28;20047;-66
2023/01/07 11:23:39;;;;;;;19.42;12.43;;;0.60;99.90;;;;;;4950673;28;20059;-61
2023/01/07 11:26:27;;;;;;;19.35;12.35;;;0.60;99.90;;;;;;4954597;28;20359;-71
2023/01/07 11:29:15;;;;;;;18.25;11.80;;;0.60;99.90;;;;;;4953231;28;20162;-63
2023/01/07 11:31:45;;;;;;;18.38;11.85;;;0.60;99.90;;;;;;4955835;28;20051;-62
2023/01/07 11:34:39;;;;;;;18.92;11.50;;;0.60;99.90;;;;;;4956039;28;20139;-62
2023/01/07 11:37:10;;;;;;;22.13;11.90;;;0.70;99.90;;;;;;4957041;28;20051;-65
2023/01/07 11:39:36;;;;;;;18.52;13.10;;;0.70;99.90;;;;;;4953518;28;20122;-61
2023/01/07 11:45:12;;;;;;;20.95;13.25;;;0.80;99.90;;;;;;4951461;28;20082;-65
2023/01/07 11:47:46;;;;;;;24.23;14.45;;;0.80;99.90;;;;;;4956646;28;20073;-62
2023/01/07 11:50:25;;;;;;;17.83;11.98;;;0.80;99.90;;;;;;4953275;28;20102;-62
2023/01/07 11:53:09;;;;;;;23.00;13.07;;;0.80;99.90;;;;;;4951412;28;20051;-62
2023/01/07 11:55:36;;;;;;;21.38;13.32;;;0.80;99.90;;;;;;4954069;28;20496;-70
2023/01/07 11:58:05;;;;;;;18.50;11.40;;;0.80;99.90;;;;;;4954049;28;20063;-62
2023/01/07 12:01:07;;;;;;;17.67;13.02;;;0.80;99.90;;;;;;4954787;28;20397;-63
2023/01/07 12:03:52;;;;;;;20.05;13.63;;;0.70;99.90;;;;;;4955092;28;20053;-65
2023/01/07 12:06:27;;;;;;;21.13;12.73;;;0.80;99.90;;;;;;4952848;28;20141;-65
2023/01/07 12:09:07;;;;;;;21.67;13.18;;;0.80;99.90;;;;;;4949984;28;20055;-62
2023/01/07 12:11:37;;;;;;;20.45;12.50;;;0.80;99.90;;;;;;4949897;28;20512;-68
2023/01/07 12:14:32;;;;;;;20.00;12.18;;;0.80;99.90;;;;;;4956156;28;20073;-68
2023/01/07 12:17:10;;;;;;;19.45;12.32;;;0.80;99.90;;;;;;4950680;28;20051;-62
2023/01/07 12:20:05;;;;;;;24.20;14.23;;;0.80;99.90;;;;;;4955715;28;20063;-63
2023/01/07 12:22:58;;;;;;;16.63;11.65;;;0.80;99.90;;;;;;4954400;28;20149;-66
2023/01/07 12:25:27;;;;;;;17.48;13.00;;;0.80;99.90;;;;;;4919224;28;20524;-70
2023/01/07 12:28:12;;;;;;;17.45;11.80;;;0.80;99.90;;;;;;4950348;28;20059;-61
2023/01/07 12:30:46;;;;;;;20.50;12.15;;;0.80;99.90;;;;;;4946915;28;20051;-65
2023/01/07 12:33:13;;;;;;;20.48;12.60;;;0.80;99.90;;;;;;4955748;28;20058;-63
2023/01/07 12:35:42;;;;;;;20.60;12.43;;;0.80;99.90;;;;;;4952340;28;20055;-65
2023/01/07 12:38:26;;;;;;;16.52;12.02;;;0.80;99.90;;;;;;4951545;28;20157;-66
2023/01/07 12:40:59;;;;;;;19.77;13.48;;;0.70;99.90;;;;;;4948420;28;20687;-67
2023/01/07 12:43:44;;;;;;;20.83;13.23;;;0.80;99.90;;;;;;4950540;28;20082;-65
2023/01/07 12:46:15;;;;;;;22.42;12.93;;;0.80;99.90;;;;;;4946574;28;20477;-68
2023/01/07 12:49:04;;;;;;;19.20;12.52;;;0.80;99.90;;;;;;4947414;28;20090;-65
2023/01/07 12:52:03;;;;;;;21.52;13.73;;;0.90;99.90;;;;;;4953525;28;20055;-62
2023/01/07 12:55:09;;;;;;;19.17;11.63;;;0.90;99.90;;;;;;4955459;28;20063;-69
2023/01/07 12:57:40;;;;;;;20.08;12.35;;;0.90;99.90;;;;;;4942810;28;20564;-70
2023/01/07 13:00:14;;;;;;;20.33;14.15;;;0.80;99.90;;;;;;4951027;28;20050;-62
2023/01/07 13:03:14;;;;;;;22.15;14.02;;;0.80;99.90;;;;;;4948784;28;21061;-61
2023/01/07 13:06:09;;;;;;;25.40;13.73;;;0.80;99.90;;;;;;4951039;28;20051;-61